Time;durP1;ratioP1;P1;durP2;ratioP2;P2;SDS_P1;SDS_P2;PMS_P1;PMS_P2;Temp;Humidity;BMP_temperature;BMP_pressure;BME280_temperature;BME280_humidity;BME280_pressure;Samples;Min_cycle;Max_cycle;Signal;HPM_P1;HPM_P2
2021/01/22 00:01:53;;;;;;;23.87;22.67;;;11.70;70.20;;;;;;5033591;28;20452;-78
2021/01/22 00:04:19;;;;;;;23.90;22.70;;;11.60;70.20;;;;;;5033469;28;20461;-78
2021/01/22 00:06:46;;;;;;;24.00;22.70;;;11.50;70.30;;;;;;5033268;28;20478;-78
2021/01/22 00:09:12;;;;;;;23.57;22.37;;;11.50;70.50;;;;;;5033218;28;20950;-78
2021/01/22 00:11:38;;;;;;;23.37;22.20;;;11.50;70.50;;;;;;5033497;28;20471;-78
2021/01/22 00:14:05;;;;;;;23.57;22.37;;;11.40;70.90;;;;;;5033303;28;20511;-78
2021/01/22 00:16:32;;;;;;;24.03;22.83;;;11.40;71.40;;;;;;5032186;28;20480;-78
2021/01/22 00:18:58;;;;;;;23.40;22.20;;;11.30;71.40;;;;;;5033550;28;20456;-78
2021/01/22 00:21:24;;;;;;;23.50;22.40;;;11.20;71.50;;;;;;5033276;28;20448;-78
2021/01/22 00:23:51;;;;;;;23.20;22.10;;;11.20;71.80;;;;;;5033424;28;20448;-77
2021/01/22 00:26:17;;;;;;;24.40;23.00;;;11.10;72.10;;;;;;5035193;28;20456;-78
2021/01/22 00:28:44;;;;;;;22.80;21.70;;;11.10;72.50;;;;;;5035653;28;20490;-78
2021/01/22 00:31:10;;;;;;;23.97;22.77;;;11.10;72.60;;;;;;5034083;28;20550;-78
2021/01/22 00:33:37;;;;;;;23.77;22.57;;;11.00;72.90;;;;;;5033086;28;20938;-78
2021/01/22 00:36:04;;;;;;;23.50;22.30;;;11.00;73.10;;;;;;5032845;28;20458;-78
2021/01/22 00:38:30;;;;;;;23.50;22.30;;;10.90;73.40;;;;;;5033217;28;20472;-78
2021/01/22 00:40:57;;;;;;;23.60;22.40;;;10.80;73.80;;;;;;5033754;28;20447;-78
2021/01/22 00:43:23;;;;;;;22.90;21.80;;;10.80;73.80;;;;;;5032904;28;20952;-78
2021/01/22 00:45:49;;;;;;;23.47;22.10;;;10.70;74.20;;;;;;5032719;28;20459;-78
2021/01/22 00:48:16;;;;;;;22.77;21.67;;;10.60;73.90;;;;;;5032506;28;20507;-78
2021/01/22 00:50:43;;;;;;;23.07;21.97;;;10.60;74.20;;;;;;5032778;28;20450;-78
2021/01/22 00:53:09;;;;;;;23.03;21.93;;;10.60;74.10;;;;;;5032620;28;20480;-78
2021/01/22 00:55:36;;;;;;;22.80;21.70;;;10.50;74.60;;;;;;5032495;28;20471;-78
2021/01/22 00:58:03;;;;;;;23.07;21.90;;;10.50;74.70;;;;;;5032549;28;20227;-78
2021/01/22 01:00:29;;;;;;;23.20;22.10;;;10.50;74.60;;;;;;5032658;28;20456;-78
2021/01/22 01:02:55;;;;;;;22.50;21.40;;;10.50;74.50;;;;;;5032479;28;20238;-78
2021/01/22 01:05:22;;;;;;;22.73;21.63;;;10.50;74.70;;;;;;5032539;28;20814;-78
2021/01/22 01:07:49;;;;;;;23.30;22.10;;;10.40;75.00;;;;;;5032087;28;21000;-78
2021/01/22 01:10:15;;;;;;;22.77;21.67;;;10.40;74.80;;;;;;5032435;28;20458;-78
2021/01/22 01:12:42;;;;;;;22.20;21.10;;;10.40;75.00;;;;;;5032282;28;20224;-78
2021/01/22 01:15:09;;;;;;;22.60;21.50;;;10.30;75.10;;;;;;5032387;28;20452;-78
2021/01/22 01:17:36;;;;;;;22.73;21.63;;;10.20;75.20;;;;;;5032106;28;20478;-78
2021/01/22 01:20:04;;;;;;;22.25;21.15;;;10.20;75.40;;;;;;5032341;28;20197;-78
2021/01/22 01:22:30;;;;;;;22.10;21.00;;;10.10;75.20;;;;;;5032377;28;20204;-78
2021/01/22 01:24:58;;;;;;;22.55;21.45;;;10.20;75.00;;;;;;5032277;28;20204;-78
2021/01/22 01:27:24;;;;;;;22.20;21.10;;;10.10;75.20;;;;;;5032011;28;20363;-78
2021/01/22 01:29:50;;;;;;;22.50;21.30;;;10.20;74.80;;;;;;5036275;28;20787;-78
2021/01/22 01:32:16;;;;;;;22.25;21.13;;;10.30;74.30;;;;;;5035947;28;20336;-78
2021/01/22 01:34:43;;;;;;;22.30;21.20;;;10.20;74.30;;;;;;5036424;28;20292;-78
2021/01/22 01:37:09;;;;;;;22.60;21.50;;;10.20;74.30;;;;;;5035745;28;20225;-78
2021/01/22 01:39:35;;;;;;;22.13;21.13;;;10.20;74.30;;;;;;5036008;28;20482;-78
2021/01/22 01:42:03;;;;;;;21.97;20.97;;;10.20;74.40;;;;;;5036027;28;20197;-78
2021/01/22 01:44:29;;;;;;;22.17;21.08;;;10.20;74.50;;;;;;5035970;28;20463;-78
2021/01/22 01:46:56;;;;;;;21.90;20.90;;;10.20;74.70;;;;;;5035895;28;20225;-78
2021/01/22 01:49:22;;;;;;;22.90;21.60;;;10.20;74.30;;;;;;5035922;28;20452;-78
2021/01/22 01:51:49;;;;;;;22.60;21.50;;;10.30;74.30;;;;;;5035765;28;20472;-78
2021/01/22 01:54:18;;;;;;;22.07;21.00;;;10.30;74.10;;;;;;5035833;28;20209;-78
2021/01/22 01:56:45;;;;;;;21.57;20.57;;;10.30;74.20;;;;;;5035400;28;20480;-78
2021/01/22 01:59:14;;;;;;;22.17;20.90;;;10.40;74.00;;;;;;5035917;28;20528;-78
2021/01/22 02:01:41;;;;;;;22.40;21.20;;;10.50;73.60;;;;;;5035663;28;20471;-78
2021/01/22 02:04:07;;;;;;;22.63;21.52;;;10.50;73.40;;;;;;5035556;28;20463;-78
2021/01/22 02:06:34;;;;;;;22.70;21.60;;;10.50;73.20;;;;;;5035475;28;20221;-78
2021/01/22 02:09:01;;;;;;;22.55;21.45;;;10.50;73.20;;;;;;5035408;28;20459;-78
2021/01/22 02:11:28;;;;;;;22.90;21.80;;;10.50;73.10;;;;;;5035587;28;20217;-78
2021/01/22 02:13:56;;;;;;;22.67;21.57;;;10.50;73.00;;;;;;5035637;28;20201;-78
2021/01/22 02:16:24;;;;;;;22.95;21.85;;;10.50;73.10;;;;;;5035265;28;20527;-78
2021/01/22 02:18:53;;;;;;;22.40;21.30;;;10.50;72.90;;;;;;5036054;28;20645;-78
2021/01/22 02:21:25;;;;;;;21.90;20.75;;;10.50;73.00;;;;;;5035188;28;20209;-77
2021/01/22 02:23:56;;;;;;;22.17;21.00;;;10.50;72.70;;;;;;5035477;28;20292;-77
2021/01/22 02:26:53;;;;;;;22.45;21.35;;;10.50;72.70;;;;;;5035122;28;20513;-78
2021/01/22 02:29:20;;;;;;;22.13;21.05;;;10.50;72.60;;;;;;5035406;28;20202;-78
2021/01/22 02:31:48;;;;;;;22.10;21.00;;;10.60;72.30;;;;;;5035111;28;20221;-78
2021/01/22 02:34:16;;;;;;;21.87;20.80;;;10.50;72.40;;;;;;5035110;28;20460;-77
2021/01/22 02:36:45;;;;;;;22.43;21.33;;;10.40;72.70;;;;;;5034823;28;20468;-78
2021/01/22 02:39:15;;;;;;;22.03;20.93;;;10.50;72.40;;;;;;5034448;28;20452;-78
2021/01/22 02:41:44;;;;;;;22.17;21.07;;;10.40;72.40;;;;;;5034764;28;20458;-78
2021/01/22 02:44:11;;;;;;;22.20;21.10;;;10.40;72.30;;;;;;5034974;28;20462;-78
2021/01/22 02:46:39;;;;;;;23.10;21.80;;;10.40;72.70;;;;;;5034630;28;20476;-78
2021/01/22 02:49:05;;;;;;;22.58;21.20;;;10.50;72.20;;;;;;5034937;28;20197;-78
2021/01/22 02:51:32;;;;;;;22.07;20.97;;;10.50;72.10;;;;;;5034803;28;20690;-78
2021/01/22 02:53:58;;;;;;;23.08;21.88;;;10.50;72.10;;;;;;5034669;28;20463;-78
2021/01/22 02:56:36;;;;;;;21.80;20.70;;;10.50;71.90;;;;;;5034419;28;20197;-78
2021/01/22 02:59:10;;;;;;;22.27;21.17;;;10.40;72.20;;;;;;5034506;28;20525;-78
2021/01/22 03:01:51;;;;;;;22.90;21.60;;;10.40;72.20;;;;;;5034613;28;20458;-78
2021/01/22 03:04:18;;;;;;;22.40;21.30;;;10.40;72.40;;;;;;5034273;28;20524;-78
2021/01/22 03:06:46;;;;;;;22.30;21.10;;;10.30;72.70;;;;;;5034127;28;20221;-78
2021/01/22 03:09:18;;;;;;;22.40;21.10;;;10.30;72.70;;;;;;5034213;28;20456;-77
2021/01/22 03:11:49;;;;;;;23.50;22.10;;;10.20;72.90;;;;;;5034469;28;20856;-78
2021/01/22 03:14:18;;;;;;;23.05;21.80;;;10.20;72.80;;;;;;5034350;28;20456;-78
2021/01/22 03:16:45;;;;;;;22.90;21.50;;;10.10;72.90;;;;;;5034067;28;20221;-77
2021/01/22 03:19:11;;;;;;;22.83;21.38;;;10.10;73.00;;;;;;5034235;28;20655;-78
2021/01/22 03:21:38;;;;;;;23.20;21.83;;;10.00;73.20;;;;;;5034130;28;20228;-77
2021/01/22 03:24:05;;;;;;;23.50;22.20;;;10.00;73.10;;;;;;5034135;28;20566;-78
2021/01/22 03:26:32;;;;;;;22.17;21.00;;;10.00;73.60;;;;;;5034045;28;20703;-78
2021/01/22 03:28:58;;;;;;;22.15;20.85;;;10.00;73.30;;;;;;5034368;28;20197;-78
2021/01/22 03:31:25;;;;;;;22.60;21.20;;;10.00;73.10;;;;;;5034546;28;20228;-77
2021/01/22 03:33:51;;;;;;;21.85;20.77;;;9.90;73.10;;;;;;5036873;28;20203;-77
2021/01/22 03:36:18;;;;;;;21.90;20.70;;;9.90;73.40;;;;;;5037897;28;20204;-78
2021/01/22 03:38:44;;;;;;;22.63;21.17;;;9.80;73.40;;;;;;5037898;28;20198;-77
2021/01/22 03:41:11;;;;;;;22.58;21.38;;;9.90;73.10;;;;;;5038350;28;20267;-78
2021/01/22 03:43:37;;;;;;;22.85;21.65;;;9.90;73.10;;;;;;5038152;28;20228;-77
2021/01/22 03:46:03;;;;;;;22.10;20.90;;;9.80;73.90;;;;;;5038639;28;20205;-78
2021/01/22 03:48:30;;;;;;;23.83;22.52;;;9.80;73.50;;;;;;5037988;28;20304;-78
2021/01/22 03:50:57;;;;;;;23.00;21.77;;;9.80;73.30;;;;;;5037647;28;20221;-78
2021/01/22 03:53:23;;;;;;;22.33;21.13;;;9.80;73.30;;;;;;5037131;28;20228;-78
2021/01/22 03:55:50;;;;;;;24.15;22.60;;;9.70;73.30;;;;;;5037497;28;20213;-78
2021/01/22 03:58:16;;;;;;;23.00;21.60;;;9.80;73.30;;;;;;5037364;28;20583;-78
2021/01/22 04:00:43;;;;;;;23.67;22.35;;;9.80;73.20;;;;;;5036505;28;20201;-78
2021/01/22 04:03:09;;;;;;;23.25;21.80;;;9.80;73.10;;;;;;5036527;28;20197;-78
2021/01/22 04:05:37;;;;;;;23.52;21.65;;;9.80;73.20;;;;;;5034964;28;20247;-78
2021/01/22 04:08:04;;;;;;;23.98;22.17;;;9.70;73.30;;;;;;5033601;28;20220;-78
2021/01/22 04:10:30;;;;;;;23.70;22.23;;;9.70;73.10;;;;;;5033430;28;20204;-78
2021/01/22 04:12:57;;;;;;;22.83;21.63;;;9.70;73.10;;;;;;5033279;28;20217;-78
2021/01/22 04:15:23;;;;;;;23.25;22.05;;;9.70;73.00;;;;;;5033283;28;20205;-78
2021/01/22 04:17:49;;;;;;;23.10;21.90;;;9.70;72.90;;;;;;5033091;28;20228;-78
2021/01/22 04:20:21;;;;;;;22.35;21.05;;;9.70;72.70;;;;;;5033248;28;20223;-78
2021/01/22 04:22:49;;;;;;;23.15;21.73;;;9.70;72.40;;;;;;5033239;28;20205;-78
2021/01/22 04:25:15;;;;;;;23.00;21.70;;;9.70;72.20;;;;;;5033076;28;20204;-78
2021/01/22 04:27:42;;;;;;;23.90;22.60;;;9.70;71.90;;;;;;5032932;28;20222;-78
2021/01/22 04:30:10;;;;;;;23.67;22.25;;;9.80;71.70;;;;;;5033088;28;20558;-78
2021/01/22 04:32:36;;;;;;;23.73;22.10;;;9.80;71.60;;;;;;5032747;28;20231;-78
2021/01/22 04:35:04;;;;;;;23.17;21.83;;;9.80;71.50;;;;;;5032972;28;20231;-78
2021/01/22 04:37:30;;;;;;;23.63;22.13;;;9.80;71.30;;;;;;5032719;28;20223;-78
2021/01/22 04:39:57;;;;;;;23.75;22.42;;;9.80;71.30;;;;;;5032868;28;20200;-78
2021/01/22 04:42:24;;;;;;;24.00;22.50;;;9.90;71.20;;;;;;5032842;28;20193;-78
2021/01/22 04:44:50;;;;;;;23.05;21.85;;;9.90;70.90;;;;;;5032738;28;20197;-78
2021/01/22 04:47:17;;;;;;;22.80;21.40;;;9.80;71.20;;;;;;5032490;28;20228;-78
2021/01/22 04:49:48;;;;;;;23.60;22.20;;;9.80;70.80;;;;;;5032676;28;20570;-78
2021/01/22 04:52:16;;;;;;;24.20;22.80;;;9.90;70.50;;;;;;5032602;28;20217;-78
2021/01/22 04:54:44;;;;;;;23.25;22.00;;;9.90;70.40;;;;;;5032540;28;20663;-78
2021/01/22 04:57:15;;;;;;;23.50;22.30;;;9.90;70.50;;;;;;5032454;28;20232;-78
2021/01/22 04:59:48;;;;;;;22.83;21.42;;;9.90;70.60;;;;;;5032887;28;20193;-78
2021/01/22 05:02:14;;;;;;;22.83;21.63;;;9.90;70.80;;;;;;5033375;28;20197;-78
2021/01/22 05:04:41;;;;;;;22.80;21.50;;;9.90;70.70;;;;;;5038681;28;20621;-78
2021/01/22 05:07:08;;;;;;;23.65;22.25;;;10.00;70.60;;;;;;5038921;28;20271;-78
2021/01/22 05:09:34;;;;;;;25.35;23.83;;;10.10;70.40;;;;;;5038876;28;20627;-78
2021/01/22 05:12:01;;;;;;;23.80;22.50;;;10.00;70.70;;;;;;5038955;28;20217;-78
2021/01/22 05:14:28;;;;;;;23.88;22.55;;;10.10;70.40;;;;;;5039252;28;20200;-78
2021/01/22 05:17:05;;;;;;;22.70;21.50;;;10.10;70.70;;;;;;5038898;28;20233;-78
2021/01/22 05:19:32;;;;;;;22.80;21.60;;;10.00;71.00;;;;;;5039191;28;20201;-78
2021/01/22 05:22:00;;;;;;;22.90;21.70;;;10.00;71.70;;;;;;5038973;28;20200;-78
2021/01/22 05:24:28;;;;;;;23.13;21.95;;;10.00;71.50;;;;;;5039329;28;20193;-78
2021/01/22 05:27:03;;;;;;;24.55;23.05;;;10.10;71.50;;;;;;5038947;28;20221;-78
2021/01/22 05:29:31;;;;;;;22.60;21.40;;;10.10;71.30;;;;;;5039079;28;20207;-78
2021/01/22 05:31:58;;;;;;;24.33;23.02;;;10.10;71.30;;;;;;5038863;28;20227;-78
2021/01/22 05:34:42;;;;;;;24.30;23.00;;;10.10;71.40;;;;;;5039076;28;20203;-78
2021/01/22 05:37:09;;;;;;;23.10;21.80;;;10.10;71.40;;;;;;5038626;28;20716;-78
2021/01/22 05:39:35;;;;;;;26.00;24.70;;;10.10;71.40;;;;;;5038911;28;20227;-78
2021/01/22 05:42:01;;;;;;;23.08;21.77;;;10.10;71.50;;;;;;5038839;28;20659;-78
2021/01/22 05:44:28;;;;;;;23.45;22.20;;;10.10;71.50;;;;;;5038776;28;20208;-78
2021/01/22 05:47:06;;;;;;;23.50;22.30;;;10.10;71.60;;;;;;5038625;28;20223;-77
2021/01/22 05:49:33;;;;;;;22.50;21.30;;;10.20;71.40;;;;;;5038762;28;20204;-77
2021/01/22 05:52:00;;;;;;;23.10;21.90;;;10.10;71.40;;;;;;5038559;28;20217;-78
2021/01/22 05:54:33;;;;;;;22.15;21.05;;;10.10;71.40;;;;;;5038745;28;20212;-77
2021/01/22 05:57:00;;;;;;;21.85;20.75;;;10.20;71.40;;;;;;5038449;28;20250;-78
2021/01/22 05:59:26;;;;;;;22.90;21.60;;;10.20;71.20;;;;;;5038752;28;20594;-78
2021/01/22 06:01:53;;;;;;;22.47;21.27;;;10.20;71.60;;;;;;5038701;28;20563;-78
2021/01/22 06:04:20;;;;;;;21.90;20.80;;;10.10;71.60;;;;;;5038370;28;20462;-78
2021/01/22 06:06:46;;;;;;;22.73;21.53;;;10.10;71.60;;;;;;5038319;28;20312;-78
2021/01/22 06:09:13;;;;;;;24.33;23.10;;;10.20;71.50;;;;;;5038362;28;20802;-78
2021/01/22 06:11:41;;;;;;;23.10;21.80;;;10.20;71.40;;;;;;5038611;28;20517;-78
2021/01/22 06:14:10;;;;;;;22.20;21.10;;;10.20;71.40;;;;;;5037621;28;20197;-78
2021/01/22 06:16:37;;;;;;;23.20;21.90;;;10.20;71.30;;;;;;5035118;28;20482;-77
2021/01/22 06:19:04;;;;;;;23.70;22.50;;;10.20;71.20;;;;;;5035330;28;20451;-78
2021/01/22 06:21:35;;;;;;;23.43;22.23;;;10.20;71.30;;;;;;5035306;28;20194;-78
2021/01/22 06:24:03;;;;;;;23.70;22.27;;;10.20;71.40;;;;;;5035341;28;20889;-78
2021/01/22 06:26:31;;;;;;;22.50;21.30;;;10.20;71.40;;;;;;5035012;28;21027;-78
2021/01/22 06:29:01;;;;;;;23.48;22.15;;;10.20;71.40;;;;;;5035109;28;20452;-78
2021/01/22 06:31:29;;;;;;;25.05;23.85;;;10.20;71.20;;;;;;5035293;28;20204;-78
2021/01/22 06:33:56;;;;;;;23.13;21.83;;;10.20;71.20;;;;;;5035014;28;20248;-78
2021/01/22 06:36:23;;;;;;;22.93;21.73;;;10.20;71.30;;;;;;5034836;28;21332;-78
2021/01/22 06:38:52;;;;;;;23.38;22.17;;;10.20;71.20;;;;;;5035089;28;20964;-78
2021/01/22 06:41:23;;;;;;;23.40;21.90;;;10.20;71.20;;;;;;5034882;28;20205;-78
2021/01/22 06:43:51;;;;;;;21.73;20.57;;;10.20;71.30;;;;;;5035506;28;20448;-78
2021/01/22 06:46:20;;;;;;;22.80;21.60;;;10.20;71.60;;;;;;5036173;28;20456;-78
2021/01/22 06:48:53;;;;;;;22.42;21.30;;;10.20;71.00;;;;;;5035933;28;20201;-78
2021/01/22 06:51:21;;;;;;;23.63;22.42;;;10.20;71.30;;;;;;5034766;28;20202;-78
2021/01/22 06:54:05;;;;;;;22.90;21.70;;;10.20;71.30;;;;;;5034820;28;20741;-78
2021/01/22 06:56:32;;;;;;;23.55;22.17;;;10.20;71.30;;;;;;5034365;28;20582;-78
2021/01/22 06:59:37;;;;;;;23.70;22.50;;;10.20;71.30;;;;;;5034720;28;20254;-78
2021/01/22 07:02:03;;;;;;;23.83;22.53;;;10.10;71.60;;;;;;5034596;28;20444;-78
2021/01/22 07:04:37;;;;;;;24.23;22.70;;;10.10;71.70;;;;;;5034097;28;20471;-78
2021/01/22 07:07:05;;;;;;;22.90;21.70;;;10.10;71.80;;;;;;5034308;28;20217;-78
2021/01/22 07:09:53;;;;;;;22.60;21.30;;;10.10;71.30;;;;;;5034183;28;20452;-78
2021/01/22 07:12:41;;;;;;;22.33;21.13;;;10.00;71.60;;;;;;5029617;28;21041;-78
2021/01/22 07:15:26;;;;;;;22.40;21.20;;;10.00;71.40;;;;;;5034683;28;20202;-78
2021/01/22 07:17:56;;;;;;;24.38;23.08;;;9.90;71.70;;;;;;5034323;28;20263;-78
2021/01/22 07:20:23;;;;;;;22.20;21.10;;;10.00;71.90;;;;;;5035924;28;20255;-78
2021/01/22 07:22:54;;;;;;;23.48;22.17;;;10.00;71.50;;;;;;5034457;28;20247;-78
2021/01/22 07:25:32;;;;;;;27.80;23.20;;;10.10;71.20;;;;;;5033583;28;20205;-78
2021/01/22 07:28:04;;;;;;;22.40;20.90;;;10.10;71.30;;;;;;5034057;28;20587;-78
2021/01/22 07:30:38;;;;;;;23.30;22.10;;;10.00;71.50;;;;;;5034107;28;20459;-78
2021/01/22 07:33:37;;;;;;;23.17;22.08;;;10.10;71.40;;;;;;5034012;28;20221;-78
2021/01/22 07:36:08;;;;;;;22.83;21.48;;;10.10;71.30;;;;;;5033740;28;20197;-78
2021/01/22 07:38:35;;;;;;;22.27;21.17;;;10.00;71.40;;;;;;5033828;28;20217;-78
2021/01/22 07:41:03;;;;;;;24.37;22.77;;;10.10;70.90;;;;;;5033877;28;20207;-78
2021/01/22 07:43:29;;;;;;;25.25;23.67;;;10.10;71.00;;;;;;5033794;28;20448;-78
2021/01/22 07:46:07;;;;;;;25.67;24.50;;;10.10;70.90;;;;;;5033484;28;20288;-78
2021/01/22 07:48:34;;;;;;;23.43;22.03;;;10.20;70.60;;;;;;5033674;28;20472;-78
2021/01/22 07:51:00;;;;;;;24.20;22.90;;;10.30;70.30;;;;;;5033674;28;20454;-78
2021/01/22 07:53:27;;;;;;;22.50;21.30;;;10.30;70.00;;;;;;5033551;28;20217;-78
2021/01/22 07:55:54;;;;;;;23.08;21.80;;;10.40;70.00;;;;;;5033236;28;20463;-78
2021/01/22 07:58:21;;;;;;;23.27;22.07;;;10.30;70.50;;;;;;5033367;28;20304;-78
2021/01/22 08:00:49;;;;;;;23.63;22.33;;;10.30;70.20;;;;;;5033387;28;20456;-78
2021/01/22 08:03:15;;;;;;;24.37;22.87;;;10.30;70.10;;;;;;5033281;28;20455;-78
2021/01/22 08:05:42;;;;;;;23.55;22.25;;;10.40;70.20;;;;;;5033277;28;20489;-78
2021/01/22 08:08:18;;;;;;;21.88;20.77;;;10.40;70.00;;;;;;5033207;28;20220;-78
2021/01/22 08:10:45;;;;;;;23.30;21.70;;;10.50;69.80;;;;;;5033299;28;20197;-78
2021/01/22 08:13:12;;;;;;;23.65;22.38;;;10.50;69.60;;;;;;5033304;28;20475;-78
2021/01/22 08:15:39;;;;;;;24.00;22.67;;;10.60;69.40;;;;;;5033035;28;20208;-78
2021/01/22 08:18:06;;;;;;;22.90;21.70;;;10.60;69.60;;;;;;5033168;28;20472;-78
2021/01/22 08:20:34;;;;;;;23.40;22.10;;;10.70;69.30;;;;;;5033104;28;21006;-78
2021/01/22 08:23:01;;;;;;;23.80;22.40;;;10.80;69.20;;;;;;5033478;28;20459;-78
2021/01/22 08:25:32;;;;;;;25.63;24.53;;;10.80;69.20;;;;;;5033819;28;20456;-78
2021/01/22 08:27:59;;;;;;;23.33;21.80;;;10.90;69.40;;;;;;5033804;28;20483;-78
2021/01/22 08:30:26;;;;;;;24.67;23.47;;;11.00;69.10;;;;;;5033685;28;20791;-78
2021/01/22 08:32:56;;;;;;;23.17;21.93;;;11.00;68.80;;;;;;5033075;28;20484;-78
2021/01/22 08:35:23;;;;;;;22.70;21.60;;;11.20;68.50;;;;;;5032890;28;20876;-78
2021/01/22 08:37:50;;;;;;;22.70;21.53;;;11.30;68.20;;;;;;5031937;28;20566;-78
2021/01/22 08:40:17;;;;;;;22.83;21.43;;;11.40;67.80;;;;;;5032921;28;20456;-78
2021/01/22 08:42:58;;;;;;;23.97;22.57;;;11.40;67.90;;;;;;5033125;28;20478;-78
2021/01/22 08:45:25;;;;;;;25.13;23.83;;;11.40;68.10;;;;;;5033137;28;20451;-78
2021/01/22 08:47:51;;;;;;;22.33;21.23;;;11.50;67.40;;;;;;5032619;28;20468;-78
2021/01/22 08:50:19;;;;;;;23.67;22.30;;;11.60;66.90;;;;;;5033071;28;20448;-78
2021/01/22 08:52:46;;;;;;;24.00;22.60;;;11.80;66.50;;;;;;5032712;28;21085;-78
2021/01/22 08:55:19;;;;;;;24.63;23.33;;;11.80;66.20;;;;;;5032775;28;20834;-78
2021/01/22 08:57:59;;;;;;;24.33;22.80;;;11.90;66.00;;;;;;5032665;28;20472;-77
2021/01/22 09:00:26;;;;;;;23.70;22.50;;;11.90;65.50;;;;;;5033055;28;20460;-77
2021/01/22 09:02:52;;;;;;;24.73;23.43;;;11.90;65.40;;;;;;5032596;28;20505;-77
2021/01/22 09:05:20;;;;;;;24.50;23.20;;;11.90;65.50;;;;;;5032697;28;20460;-78
2021/01/22 09:08:03;;;;;;;24.23;22.83;;;12.00;65.30;;;;;;5032528;28;20811;-78
2021/01/22 09:10:31;;;;;;;23.63;22.23;;;12.10;65.00;;;;;;5032910;28;20460;-78
2021/01/22 09:13:09;;;;;;;23.30;21.80;;;12.00;65.30;;;;;;5033324;28;20479;-78
2021/01/22 09:15:35;;;;;;;24.10;22.90;;;12.10;65.00;;;;;;5034306;28;20930;-78
2021/01/22 09:18:02;;;;;;;23.60;22.40;;;12.10;64.90;;;;;;5032779;28;20498;-78
2021/01/22 09:20:29;;;;;;;25.50;23.90;;;12.00;65.20;;;;;;5032693;28;20466;-78
2021/01/22 09:23:04;;;;;;;23.80;22.60;;;12.00;65.20;;;;;;5032604;28;20758;-78
2021/01/22 09:25:31;;;;;;;23.90;22.70;;;12.00;65.40;;;;;;5032677;28;20463;-78
2021/01/22 09:27:57;;;;;;;23.07;21.83;;;12.00;65.20;;;;;;5032327;28;20479;-77
2021/01/22 09:30:26;;;;;;;23.10;21.90;;;12.00;65.40;;;;;;5032437;28;20452;-77
2021/01/22 09:32:54;;;;;;;25.00;23.60;;;12.00;65.40;;;;;;5032378;28;20824;-77
2021/01/22 09:35:23;;;;;;;24.87;23.40;;;12.10;65.50;;;;;;5032253;28;20452;-77
2021/01/22 09:37:50;;;;;;;24.43;23.07;;;12.20;64.90;;;;;;5032257;28;20483;-78
2021/01/22 09:40:17;;;;;;;24.17;22.80;;;12.40;64.70;;;;;;5032330;28;20462;-78
2021/01/22 09:42:44;;;;;;;23.87;22.67;;;12.50;64.70;;;;;;5032540;28;20454;-78
2021/01/22 09:45:12;;;;;;;26.10;24.60;;;12.60;64.10;;;;;;5032402;28;20451;-78
2021/01/22 09:47:39;;;;;;;26.97;25.57;;;12.70;63.60;;;;;;5032195;28;21066;-77
2021/01/22 09:50:07;;;;;;;25.03;23.63;;;12.80;63.30;;;;;;5034977;28;20485;-78
2021/01/22 09:52:36;;;;;;;24.37;22.87;;;12.90;63.90;;;;;;5036646;28;20487;-78
2021/01/22 09:55:04;;;;;;;24.17;22.87;;;13.00;62.80;;;;;;5039003;28;20467;-78
2021/01/22 09:57:30;;;;;;;23.50;22.20;;;13.00;62.40;;;;;;5038064;28;20480;-78
2021/01/22 09:59:57;;;;;;;24.53;23.17;;;13.00;62.80;;;;;;5036190;28;20949;-78
2021/01/22 10:02:23;;;;;;;25.57;24.17;;;13.00;62.90;;;;;;5035998;28;20448;-78
2021/01/22 10:04:49;;;;;;;24.67;23.37;;;13.20;62.30;;;;;;5035868;28;20460;-78
2021/01/22 10:07:15;;;;;;;24.60;22.80;;;13.30;61.90;;;;;;5035745;28;20845;-78
2021/01/22 10:09:42;;;;;;;24.10;22.80;;;13.50;61.50;;;;;;5035619;28;20547;-78
2021/01/22 10:12:10;;;;;;;25.03;23.70;;;13.50;61.20;;;;;;5035598;28;20456;-78
2021/01/22 10:14:36;;;;;;;25.27;23.57;;;13.70;60.80;;;;;;5036050;28;20456;-78
2021/01/22 10:17:03;;;;;;;24.27;22.70;;;13.70;60.70;;;;;;5035797;28;20807;-78
2021/01/22 10:19:29;;;;;;;25.10;23.70;;;13.80;60.60;;;;;;5035694;28;20452;-78
2021/01/22 10:21:55;;;;;;;23.57;22.27;;;13.90;60.10;;;;;;5035279;28;20830;-78
2021/01/22 10:24:22;;;;;;;24.23;22.80;;;13.90;60.60;;;;;;5035404;28;20521;-78
2021/01/22 10:26:49;;;;;;;24.50;23.20;;;13.90;60.40;;;;;;5035147;28;21058;-78
2021/01/22 10:29:17;;;;;;;24.73;23.37;;;14.00;60.00;;;;;;5035424;28;20451;-78
2021/01/22 10:31:43;;;;;;;24.53;23.13;;;13.90;60.20;;;;;;5035381;28;20797;-78
2021/01/22 10:34:10;;;;;;;25.13;23.70;;;14.00;60.40;;;;;;5035261;28;20501;-78
2021/01/22 10:36:37;;;;;;;25.07;23.57;;;14.00;60.10;;;;;;5034997;28;20475;-78
2021/01/22 10:39:04;;;;;;;24.37;23.00;;;14.10;60.10;;;;;;5035096;28;20448;-78
2021/01/22 10:41:30;;;;;;;24.07;22.67;;;14.20;59.70;;;;;;5035032;28;20463;-78
2021/01/22 10:43:56;;;;;;;24.40;22.80;;;14.20;59.60;;;;;;5035056;28;20787;-78
2021/01/22 10:46:24;;;;;;;23.60;22.40;;;14.20;59.80;;;;;;5028598;22;20476;-78
2021/01/22 10:48:50;;;;;;;23.07;21.87;;;14.20;59.70;;;;;;5015302;28;20508;-78
2021/01/22 10:51:17;;;;;;;24.00;22.80;;;14.10;59.90;;;;;;5015046;28;20552;-78
2021/01/22 10:53:43;;;;;;;24.40;23.20;;;14.20;59.80;;;;;;5014895;28;20485;-78
2021/01/22 10:56:09;;;;;;;24.10;22.83;;;14.30;59.40;;;;;;5014890;28;20460;-78
2021/01/22 10:58:38;;;;;;;24.17;22.93;;;14.40;59.20;;;;;;5015052;28;20933;-78
2021/01/22 11:01:05;;;;;;;25.40;24.00;;;14.50;58.90;;;;;;5014124;28;20461;-78
2021/01/22 11:03:32;;;;;;;26.27;24.90;;;14.60;58.20;;;;;;5014796;28;20455;-78
2021/01/22 11:05:59;;;;;;;25.03;23.37;;;14.70;58.20;;;;;;5014672;28;20549;-78
2021/01/22 11:08:25;;;;;;;23.83;22.60;;;14.70;58.20;;;;;;5014556;28;20551;-78
2021/01/22 11:10:52;;;;;;;24.00;22.70;;;14.70;58.10;;;;;;5015029;28;20471;-78
2021/01/22 11:13:18;;;;;;;24.40;23.10;;;14.90;58.50;;;;;;5014645;28;20499;-78
2021/01/22 11:15:45;;;;;;;25.10;23.60;;;14.90;57.90;;;;;;5014431;28;20479;-78
2021/01/22 11:18:11;;;;;;;24.80;23.40;;;15.00;57.90;;;;;;5014594;28;20473;-78
2021/01/22 11:20:38;;;;;;;25.30;23.80;;;15.00;57.90;;;;;;5014596;28;20457;-78
2021/01/22 11:23:05;;;;;;;25.60;24.00;;;15.10;58.10;;;;;;5014656;28;21009;-78
2021/01/22 11:25:31;;;;;;;25.60;24.07;;;15.10;57.90;;;;;;5014699;28;20534;-78
2021/01/22 11:27:57;;;;;;;24.17;22.70;;;15.00;58.00;;;;;;5014431;28;20477;-78
2021/01/22 11:30:24;;;;;;;25.03;23.30;;;15.00;57.70;;;;;;5014539;28;20460;-78
2021/01/22 11:32:50;;;;;;;24.67;23.37;;;15.00;58.00;;;;;;5018299;28;20567;-78
2021/01/22 11:35:16;;;;;;;26.20;24.70;;;15.00;57.50;;;;;;5018751;28;20850;-78
2021/01/22 11:37:45;;;;;;;26.13;24.47;;;15.00;58.00;;;;;;5016629;28;20825;-78
2021/01/22 11:40:12;;;;;;;24.23;23.03;;;15.00;57.50;;;;;;5014979;28;20957;-78
2021/01/22 11:42:39;;;;;;;24.87;23.47;;;15.00;57.20;;;;;;5014670;28;20447;-78
2021/01/22 11:45:07;;;;;;;24.80;23.40;;;15.10;57.20;;;;;;5014138;28;20842;-78
2021/01/22 11:47:33;;;;;;;24.77;23.37;;;15.10;57.00;;;;;;5014008;28;20473;-78
2021/01/22 11:50:00;;;;;;;24.60;23.30;;;15.30;56.90;;;;;;5014030;28;20814;-78
2021/01/22 11:52:26;;;;;;;24.40;23.00;;;15.40;56.40;;;;;;5013986;28;20467;-78
2021/01/22 11:54:53;;;;;;;24.10;22.73;;;15.40;56.30;;;;;;5014197;28;20456;-79
2021/01/22 11:57:19;;;;;;;24.30;22.90;;;15.50;57.20;;;;;;5014213;28;20534;-78
2021/01/22 11:59:46;;;;;;;24.27;22.87;;;15.60;56.30;;;;;;5014041;28;20452;-78
2021/01/22 12:02:12;;;;;;;24.87;23.37;;;15.50;55.80;;;;;;5013922;28;20479;-78
2021/01/22 12:04:38;;;;;;;24.40;23.10;;;15.40;56.40;;;;;;5013561;28;20464;-78
2021/01/22 12:07:05;;;;;;;23.77;22.60;;;15.40;56.50;;;;;;5013785;28;20479;-78
2021/01/22 12:09:31;;;;;;;24.20;22.90;;;15.50;56.30;;;;;;5013559;28;20467;-78
2021/01/22 12:11:58;;;;;;;25.73;23.97;;;15.50;56.10;;;;;;5013623;28;20509;-78
2021/01/22 12:14:24;;;;;;;24.53;23.33;;;15.40;57.10;;;;;;5013790;28;20485;-78
2021/01/22 12:16:51;;;;;;;25.10;23.50;;;15.50;56.30;;;;;;5013626;28;20473;-78
2021/01/22 12:19:18;;;;;;;26.60;25.30;;;15.50;56.40;;;;;;5013587;28;20453;-78
2021/01/22 12:21:45;;;;;;;24.53;23.30;;;15.50;55.70;;;;;;5013771;28;20611;-78
2021/01/22 12:24:11;;;;;;;25.87;24.37;;;15.50;55.40;;;;;;5013525;28;20906;-78
2021/01/22 12:26:38;;;;;;;25.17;23.77;;;15.40;55.40;;;;;;5013515;28;20850;-78
2021/01/22 12:29:05;;;;;;;24.40;23.10;;;15.40;55.50;;;;;;5013566;28;20535;-78
2021/01/22 12:31:32;;;;;;;23.73;22.50;;;15.30;55.20;;;;;;5013376;28;20510;-78
2021/01/22 12:33:58;;;;;;;24.30;23.00;;;15.40;55.10;;;;;;5013394;28;20477;-78